Time;durP1;ratioP1;P1;durP2;ratioP2;P2;SDS_P1;SDS_P2;PMS_P1;PMS_P2;Temp;Humidity;BMP_temperature;BMP_pressure;BME280_temperature;BME280_humidity;BME280_pressure;Samples;Min_cycle;Max_cycle;Signal;HPM_P1;HPM_P2
2022/12/19 00:00:30;;;;;;;93.55;43.78;;;;;;;0.59;100.00;101766.56;5262258;28;20442;-86
2022/12/19 00:03:01;;;;;;;90.97;41.00;;;;;;;0.56;100.00;101752.66;5255702;28;20055;-86
2022/12/19 00:05:36;;;;;;;96.03;41.67;;;;;;;0.60;100.00;101745.50;5261319;28;20029;-86
2022/12/19 00:08:18;;;;;;;92.60;44.58;;;;;;;0.62;100.00;101754.19;5261909;28;20124;-86
2022/12/19 00:10:57;;;;;;;93.65;46.50;;;;;;;0.64;100.00;101748.88;5259572;28;20077;-87
2022/12/19 00:13:30;;;;;;;93.22;46.20;;;;;;;0.67;100.00;101733.03;5261385;28;20029;-86
2022/12/19 00:16:04;;;;;;;91.60;41.60;;;;;;;0.71;100.00;101748.59;5266965;28;20449;-86
2022/12/19 00:18:35;;;;;;;91.50;45.88;;;;;;;0.71;100.00;101734.63;5260748;28;20018;-88
2022/12/19 00:21:08;;;;;;;92.03;47.08;;;;;;;0.73;100.00;101752.00;5261115;28;20021;-86
2022/12/19 00:23:40;;;;;;;95.10;54.97;;;;;;;0.73;100.00;101757.25;5260313;28;20481;-87
2022/12/19 00:26:13;;;;;;;92.70;43.53;;;;;;;0.74;100.00;101732.72;5253989;28;20076;-87
2022/12/19 00:28:47;;;;;;;92.43;45.08;;;;;;;0.79;100.00;101726.44;5259511;28;20137;-86
2022/12/19 00:31:20;;;;;;;86.28;42.47;;;;;;;0.80;100.00;101730.78;5258380;28;20037;-86
2022/12/19 00:33:51;;;;;;;96.30;48.75;;;;;;;0.78;100.00;101722.97;5259397;28;20057;-86
2022/12/19 00:36:25;;;;;;;86.10;42.40;;;;;;;0.82;100.00;101726.31;5259030;28;20060;-86
2022/12/19 00:38:59;;;;;;;89.15;45.08;;;;;;;0.87;100.00;101719.97;5258199;28;20109;-86
2022/12/19 00:41:32;;;;;;;95.93;45.90;;;;;;;0.90;100.00;101713.78;5258224;28;20470;-86
2022/12/19 00:44:10;;;;;;;81.82;43.40;;;;;;;0.89;100.00;101710.25;5257961;28;20443;-86
2022/12/19 00:46:42;;;;;;;86.03;39.33;;;;;;;0.92;100.00;101712.78;5258244;28;20406;-85
2022/12/19 00:49:14;;;;;;;86.30;43.65;;;;;;;0.97;100.00;101715.25;5264021;28;20045;-86
2022/12/19 00:51:45;;;;;;;83.35;45.17;;;;;;;0.99;100.00;101734.41;5265856;28;20018;-85
2022/12/19 00:54:16;;;;;;;76.95;42.88;;;;;;;1.00;100.00;101709.88;5272204;28;20021;-84
2022/12/19 00:56:48;;;;;;;83.53;40.72;;;;;;;1.01;100.00;101700.22;5271921;28;20060;-85
2022/12/19 00:59:19;;;;;;;87.18;40.55;;;;;;;1.06;100.00;101685.13;5242160;28;20032;-85
2022/12/19 01:01:50;;;;;;;83.70;40.88;;;;;;;1.04;100.00;101674.66;5257788;28;20053;-85
2022/12/19 01:04:22;;;;;;;86.25;44.30;;;;;;;1.03;100.00;101683.47;5255085;28;20049;-86
2022/12/19 01:06:53;;;;;;;80.38;39.42;;;;;;;1.07;100.00;101692.06;5256012;28;20077;-86
2022/12/19 01:09:24;;;;;;;77.78;41.65;;;;;;;1.09;100.00;101693.75;5257991;28;20044;-86
2022/12/19 01:14:45;;;;;;;79.72;39.05;;;;;;;1.14;100.00;101693.56;5257032;28;20029;-85
2022/12/19 01:17:16;;;;;;;86.05;39.25;;;;;;;1.17;100.00;101688.16;5255714;28;20454;-86
2022/12/19 01:19:48;;;;;;;80.63;39.55;;;;;;;1.16;100.00;101677.72;5257000;28;20033;-86
2022/12/19 01:22:19;;;;;;;78.68;37.90;;;;;;;1.19;100.00;101680.22;5244952;28;20520;-86
2022/12/19 01:24:50;;;;;;;84.47;46.47;;;;;;;1.16;100.00;101670.72;5237400;28;20038;-86
2022/12/19 01:27:22;;;;;;;82.22;38.92;;;;;;;1.18;100.00;101668.03;5256124;28;20053;-86
2022/12/19 01:29:53;;;;;;;80.35;39.67;;;;;;;1.21;100.00;101665.25;5255631;28;20032;-86
2022/12/19 01:32:24;;;;;;;81.80;39.35;;;;;;;1.26;100.00;101663.28;5256635;28;20399;-86
2022/12/19 01:34:56;;;;;;;81.32;39.45;;;;;;;1.26;100.00;101664.16;5255389;28;20073;-86
2022/12/19 01:37:27;;;;;;;76.32;38.20;;;;;;;1.25;100.00;101657.19;5257663;28;20025;-86
2022/12/19 01:39:58;;;;;;;80.93;37.95;;;;;;;1.29;100.00;101661.38;5258293;28;20029;-86
2022/12/19 01:42:34;;;;;;;76.47;38.28;;;;;;;1.32;100.00;101670.94;5259202;28;21910;-85
2022/12/19 01:45:08;;;;;;;69.13;34.58;;;;;;;1.35;100.00;101665.56;5258095;28;20100;-85
2022/12/19 01:47:46;;;;;;;73.10;37.28;;;;;;;1.39;100.00;101659.25;5259643;28;20045;-85
2022/12/19 01:50:24;;;;;;;76.10;39.85;;;;;;;1.37;100.00;101660.22;5259229;28;20033;-87
2022/12/19 01:52:57;;;;;;;82.30;41.92;;;;;;;1.38;100.00;101664.56;5244108;28;20430;-87
2022/12/19 01:55:29;;;;;;;79.53;36.92;;;;;;;1.40;100.00;101658.31;5256771;28;20119;-87
2022/12/19 01:58:00;;;;;;;85.03;41.17;;;;;;;1.40;100.00;101653.06;5240943;28;20033;-87
2022/12/19 02:00:32;;;;;;;73.38;38.78;;;;;;;1.43;100.00;101660.81;5258508;28;20050;-85
2022/12/19 02:03:19;;;;;;;85.35;38.35;;;;;;;1.45;100.00;101655.50;5259205;28;20561;-86
2022/12/19 02:05:51;;;;;;;85.93;39.17;;;;;;;1.43;100.00;101650.31;5258018;28;20029;-87
2022/12/19 02:08:23;;;;;;;84.95;42.13;;;;;;;1.42;100.00;101643.34;5258606;28;20029;-86
2022/12/19 02:10:55;;;;;;;82.80;39.10;;;;;;;1.43;100.00;101644.22;5257100;28;20033;-87
2022/12/19 02:13:26;;;;;;;83.88;40.20;;;;;;;1.46;100.00;101626.53;5259421;28;20064;-86
2022/12/19 02:16:25;;;;;;;83.00;40.58;;;;;;;1.48;100.00;101627.31;5254344;28;20079;-85
2022/12/19 02:19:44;;;;;;;89.70;39.47;;;;;;;1.50;100.00;101622.84;5256671;28;20022;-87
2022/12/19 02:22:25;;;;;;;88.85;40.97;;;;;;;1.50;100.00;101620.22;5230316;28;20379;-87
2022/12/19 02:25:43;;;;;;;84.28;37.47;;;;;;;1.54;100.00;101613.03;5259351;28;20033;-87
2022/12/19 02:28:52;;;;;;;93.72;42.80;;;;;;;1.56;100.00;101605.97;5235021;28;20053;-87
2022/12/19 02:31:32;;;;;;;91.82;40.03;;;;;;;1.58;100.00;101600.63;5257013;28;20036;-86
2022/12/19 02:34:28;;;;;;;87.55;39.55;;;;;;;1.63;100.00;101598.66;5258175;28;20482;-86
2022/12/19 02:37:04;;;;;;;90.10;39.80;;;;;;;1.62;100.00;101603.06;5255038;28;20033;-86
2022/12/19 02:39:54;;;;;;;94.80;40.83;;;;;;;1.67;100.00;101598.47;5272177;28;20095;-87
2022/12/19 02:42:29;;;;;;;93.03;40.78;;;;;;;1.73;100.00;101593.84;5256635;28;20319;-85
2022/12/19 02:45:03;;;;;;;83.50;42.55;;;;;;;1.78;100.00;101589.25;5259243;28;20126;-87
2022/12/19 02:47:35;;;;;;;88.00;40.35;;;;;;;1.85;100.00;101586.25;5258930;28;20029;-87
2022/12/19 02:50:07;;;;;;;99.80;40.95;;;;;;;1.97;100.00;101584.88;5258286;28;20040;-86
2022/12/19 02:52:38;;;;;;;96.28;39.00;;;;;;;2.02;100.00;101575.00;5256857;28;20030;-86
2022/12/19 02:55:17;;;;;;;92.70;39.33;;;;;;;2.08;100.00;101576.50;5259116;28;20041;-87
2022/12/19 02:58:24;;;;;;;86.95;40.72;;;;;;;2.17;100.00;101564.69;5255752;28;20359;-86
2022/12/19 03:01:02;;;;;;;93.18;38.92;;;;;;;2.19;100.00;101549.66;5241356;28;20081;-86
2022/12/19 03:03:52;;;;;;;87.13;41.88;;;;;;;2.20;100.00;101561.91;5263820;28;20076;-86
2022/12/19 03:06:44;;;;;;;85.50;38.70;;;;;;;2.29;100.00;101565.91;5260775;28;20025;-87
2022/12/19 03:09:27;;;;;;;93.15;40.22;;;;;;;2.36;100.00;101564.69;5258959;28;20045;-87
2022/12/19 03:12:05;;;;;;;84.50;38.65;;;;;;;2.39;100.00;101565.41;5258023;28;20061;-87
2022/12/19 03:14:36;;;;;;;90.38;40.60;;;;;;;2.44;100.00;101562.56;5264506;28;20032;-87
2022/12/19 03:17:08;;;;;;;89.22;38.40;;;;;;;2.49;100.00;101551.78;5259944;28;20025;-87
2022/12/19 03:19:40;;;;;;;84.70;40.30;;;;;;;2.64;100.00;101575.63;5259700;28;20029;-87
2022/12/19 03:22:11;;;;;;;93.80;36.95;;;;;;;2.71;100.00;101562.16;5260114;28;20029;-88
2022/12/19 03:24:43;;;;;;;81.65;36.88;;;;;;;2.71;100.00;101541.94;5260792;28;20017;-86
2022/12/19 03:27:21;;;;;;;81.13;37.55;;;;;;;2.77;100.00;101546.91;5268645;28;20037;-86
2022/12/19 03:30:01;;;;;;;80.60;41.10;;;;;;;2.87;100.00;101552.56;5268383;28;20049;-87
2022/12/19 03:32:35;;;;;;;76.82;37.15;;;;;;;2.93;100.00;101552.28;5255625;28;20045;-86
2022/12/19 03:35:25;;;;;;;76.80;35.88;;;;;;;3.06;100.00;101554.31;5273270;28;20021;-86
2022/12/19 03:38:01;;;;;;;72.32;36.53;;;;;;;3.13;100.00;101553.91;5259910;28;20044;-87
2022/12/19 03:40:34;;;;;;;78.97;35.80;;;;;;;3.23;100.00;101538.50;5257438;28;20029;-87
2022/12/19 03:43:10;;;;;;;73.28;33.10;;;;;;;3.30;100.00;101537.25;5257109;28;20351;-88
2022/12/19 03:45:51;;;;;;;74.00;33.90;;;;;;;3.44;100.00;101543.59;5257045;28;20040;-87
2022/12/19 03:48:31;;;;;;;63.33;32.28;;;;;;;3.57;100.00;101555.22;5257926;28;20057;-87
2022/12/19 03:51:38;;;;;;;68.72;34.92;;;;;;;3.65;100.00;101553.03;5239489;28;20052;-87
2022/12/19 03:54:16;;;;;;;66.30;32.72;;;;;;;3.78;100.00;101532.97;5255098;28;20107;-87
2022/12/19 03:56:59;;;;;;;67.95;32.20;;;;;;;3.87;100.00;101543.97;5256666;28;20166;-87
2022/12/19 03:59:38;;;;;;;62.15;33.17;;;;;;;3.98;100.00;101541.63;5257323;28;20040;-87
2022/12/19 04:02:12;;;;;;;61.00;31.05;;;;;;;4.07;100.00;101541.13;5256455;28;20022;-87
2022/12/19 04:04:47;;;;;;;61.67;32.15;;;;;;;4.06;100.00;101536.78;5254453;28;20175;-85
2022/12/19 04:07:20;;;;;;;59.50;31.10;;;;;;;4.12;100.00;101535.59;5254411;28;20052;-87
2022/12/19 04:09:54;;;;;;;59.05;29.45;;;;;;;4.20;100.00;101540.47;5256539;28;20116;-86
2022/12/19 04:12:32;;;;;;;56.47;29.55;;;;;;;4.24;100.00;101557.84;5249250;28;20100;-86
2022/12/19 04:15:04;;;;;;;52.47;28.58;;;;;;;4.30;100.00;101541.66;5255388;28;20448;-87
2022/12/19 04:17:54;;;;;;;58.13;32.75;;;;;;;4.37;100.00;101550.09;5258309;28;20030;-86
2022/12/19 04:20:27;;;;;;;52.85;31.25;;;;;;;4.41;100.00;101526.06;5254032;28;20039;-86
2022/12/19 04:23:07;;;;;;;55.83;29.27;;;;;;;4.41;100.00;101535.78;5256290;28;20041;-86
2022/12/19 04:25:48;;;;;;;56.67;28.52;;;;;;;4.46;100.00;101531.94;5256139;28;20029;-87
2022/12/19 04:28:26;;;;;;;49.50;28.00;;;;;;;4.57;100.00;101522.56;5256277;28;20053;-87
2022/12/19 04:30:59;;;;;;;44.63;28.42;;;;;;;4.57;100.00;101522.56;5253230;28;20055;-86
2022/12/19 04:33:30;;;;;;;53.45;28.45;;;;;;;4.62;100.00;101520.50;5238988;28;20059;-86
2022/12/19 04:36:01;;;;;;;46.70;28.52;;;;;;;4.69;100.00;101513.94;5256257;28;20021;-86
2022/12/19 04:38:33;;;;;;;47.85;27.20;;;;;;;4.75;100.00;101508.28;5256508;28;20869;-85
2022/12/19 04:41:04;;;;;;;47.42;27.50;;;;;;;4.76;100.00;101515.28;5255257;28;20026;-86
2022/12/19 04:43:36;;;;;;;48.78;27.13;;;;;;;4.79;100.00;101522.19;5255347;28;20044;-85
2022/12/19 04:46:07;;;;;;;47.17;27.95;;;;;;;4.84;100.00;101514.81;5256160;28;20028;-85
2022/12/19 04:48:38;;;;;;;45.33;27.25;;;;;;;4.87;100.00;101515.53;5255298;28;20052;-86
2022/12/19 04:51:10;;;;;;;39.80;27.17;;;;;;;4.95;100.00;101520.34;5255772;28;20025;-87
2022/12/19 04:53:41;;;;;;;41.78;26.33;;;;;;;4.96;100.00;101510.63;5256342;28;20132;-86
2022/12/19 04:56:12;;;;;;;43.70;26.35;;;;;;;5.01;100.00;101514.69;5253960;28;20032;-86
2022/12/19 04:58:44;;;;;;;40.72;24.90;;;;;;;5.01;100.00;101516.50;5257726;28;20029;-87
2022/12/19 05:01:17;;;;;;;43.20;27.65;;;;;;;5.05;100.00;101531.22;5257623;28;20086;-86
2022/12/19 05:03:48;;;;;;;38.28;26.52;;;;;;;5.11;100.00;101513.22;5253730;28;20036;-86
2022/12/19 05:06:20;;;;;;;43.13;26.88;;;;;;;5.13;100.00;101525.50;5254614;28;20474;-86
2022/12/19 05:08:51;;;;;;;39.65;25.55;;;;;;;5.17;100.00;101509.38;5255342;28;20041;-86
2022/12/19 05:11:22;;;;;;;40.00;25.73;;;;;;;5.20;100.00;101514.47;5254714;28;20029;-85
2022/12/19 05:13:54;;;;;;;37.38;26.05;;;;;;;5.24;100.00;101512.47;5257503;28;20026;-86
2022/12/19 05:16:25;;;;;;;41.78;25.33;;;;;;;5.24;100.00;101502.78;5258012;28;20034;-86
2022/12/19 05:18:56;;;;;;;43.30;25.48;;;;;;;5.25;100.00;101508.91;5259496;28;20033;-86
2022/12/19 05:21:28;;;;;;;37.33;23.73;;;;;;;5.27;100.00;101496.44;5258966;28;20040;-86
2022/12/19 05:23:59;;;;;;;37.28;24.20;;;;;;;5.32;100.00;101509.41;5259820;28;20030;-87
2022/12/19 05:26:31;;;;;;;40.85;24.05;;;;;;;5.39;100.00;101508.09;5258678;28;20030;-87
2022/12/19 05:29:02;;;;;;;35.60;23.25;;;;;;;5.42;100.00;101510.56;5259487;28;20033;-86
2022/12/19 05:31:34;;;;;;;35.90;22.60;;;;;;;5.46;100.00;101498.81;5258786;28;20013;-87
2022/12/19 05:34:06;;;;;;;33.38;22.38;;;;;;;5.43;100.00;101502.50;5260310;28;20532;-87
2022/12/19 05:36:37;;;;;;;29.98;21.50;;;;;;;5.51;100.00;101498.56;5259568;28;20033;-87
2022/12/19 05:39:08;;;;;;;33.75;22.00;;;;;;;5.49;100.00;101501.28;5260553;28;20041;-87
2022/12/19 05:41:40;;;;;;;32.13;21.80;;;;;;;5.54;100.00;101496.56;5258409;28;20053;-87
2022/12/19 05:44:11;;;;;;;30.80;21.23;;;;;;;5.59;100.00;101498.91;5260601;28;20112;-87
2022/12/19 05:46:42;;;;;;;29.50;20.98;;;;;;;5.65;100.00;101498.56;5260072;28;20436;-86
2022/12/19 05:49:14;;;;;;;28.95;21.20;;;;;;;5.66;100.00;101502.88;5258364;28;20036;-85
2022/12/19 05:51:45;;;;;;;27.88;20.58;;;;;;;5.72;100.00;101502.53;5258962;28;20044;-86
2022/12/19 05:54:17;;;;;;;25.17;19.40;;;;;;;5.79;100.00;101506.50;5260052;28;20018;-86
2022/12/19 05:56:51;;;;;;;25.92;19.15;;;;;;;5.80;100.00;101500.25;5257320;28;20033;-86
2022/12/19 05:59:22;;;;;;;27.02;19.65;;;;;;;5.79;100.00;101500.34;5262359;28;20093;-86
2022/12/19 06:01:54;;;;;;;26.00;19.55;;;;;;;5.83;100.00;101529.16;5270683;28;20094;-87
2022/12/19 06:04:25;;;;;;;27.63;16.88;;;;;;;5.84;100.00;101508.88;5258023;28;20020;-87
2022/12/19 06:06:57;;;;;;;25.00;18.20;;;;;;;5.88;100.00;101497.13;5283248;28;20022;-86
2022/12/19 06:09:28;;;;;;;23.63;17.05;;;;;;;5.88;100.00;101497.13;5273597;28;20402;-86
2022/12/19 06:11:59;;;;;;;29.25;18.70;;;;;;;5.91;100.00;101502.22;5260691;28;20434;-86
2022/12/19 06:14:31;;;;;;;22.52;17.23;;;;;;;5.94;100.00;101509.13;5242777;28;20026;-86
2022/12/19 06:17:02;;;;;;;23.17;17.10;;;;;;;6.00;100.00;101506.13;5242217;28;20104;-86
2022/12/19 06:19:36;;;;;;;22.05;17.17;;;;;;;6.01;100.00;101507.81;5261089;28;20061;-86
2022/12/19 06:22:07;;;;;;;24.65;16.90;;;;;;;5.99;100.00;101496.47;5246033;28;20013;-86
2022/12/19 06:24:39;;;;;;;21.70;17.23;;;;;;;6.01;100.00;101494.56;5245141;28;20390;-86
2022/12/19 06:27:10;;;;;;;23.58;17.92;;;;;;;6.06;100.00;101495.13;5245581;28;20129;-85
2022/12/19 06:29:41;;;;;;;22.80;17.23;;;;;;;6.05;100.00;101506.69;5260697;28;20038;-86
2022/12/19 06:32:13;;;;;;;20.88;17.02;;;;;;;6.11;100.00;101495.69;5241788;28;20092;-86
2022/12/19 06:34:44;;;;;;;21.58;16.98;;;;;;;6.18;100.00;101509.41;5240819;28;20088;-86
2022/12/19 06:37:16;;;;;;;22.98;16.63;;;;;;;6.19;100.00;101501.38;5241380;28;20033;-86
2022/12/19 06:39:49;;;;;;;20.30;16.50;;;;;;;6.22;100.00;101519.72;5247728;28;20029;-87
2022/12/19 06:42:23;;;;;;;19.83;15.35;;;;;;;6.28;100.00;101518.47;5240590;28;20018;-87
2022/12/19 06:44:55;;;;;;;21.98;15.30;;;;;;;6.28;100.00;101525.59;5241319;28;20141;-87
2022/12/19 06:47:26;;;;;;;22.02;17.17;;;;;;;6.27;100.00;101521.22;5259888;28;20455;-87
2022/12/19 06:49:57;;;;;;;20.48;16.77;;;;;;;6.28;100.00;101515.84;5243517;28;20514;-87
2022/12/19 06:52:29;;;;;;;20.95;17.05;;;;;;;6.31;100.00;101518.28;5241332;28;20109;-85
2022/12/19 06:55:00;;;;;;;21.92;18.00;;;;;;;6.34;100.00;101514.59;5245514;28;20052;-87
2022/12/19 06:57:31;;;;;;;22.27;17.17;;;;;;;6.34;100.00;101530.47;5264227;28;20013;-87
2022/12/19 07:00:03;;;;;;;24.60;17.05;;;;;;;6.32;100.00;101535.88;5243832;28;20441;-88
2022/12/19 07:02:35;;;;;;;20.75;17.23;;;;;;;6.32;100.00;101517.31;5265073;28;20038;-87
2022/12/19 07:05:07;;;;;;;21.13;17.05;;;;;;;6.32;100.00;101522.63;5256997;28;20029;-87
2022/12/19 07:07:38;;;;;;;21.63;16.73;;;;;;;6.31;100.00;101520.94;5241672;28;20037;-88
2022/12/19 07:10:10;;;;;;;22.02;17.80;;;;;;;6.37;100.00;101531.13;5257332;28;21439;-86
2022/12/19 07:12:41;;;;;;;22.17;17.80;;;;;;;6.35;100.00;101511.84;5258851;28;20018;-87
2022/12/19 07:15:12;;;;;;;19.75;16.08;;;;;;;6.33;100.00;101507.56;5244237;28;20029;-87
2022/12/19 07:17:44;;;;;;;18.77;16.27;;;;;;;6.32;100.00;101538.53;5261907;28;20785;-88
2022/12/19 07:20:16;;;;;;;22.33;15.80;;;;;;;6.32;100.00;101517.31;5243259;28;20029;-87
2022/12/19 07:22:48;;;;;;;21.52;15.93;;;;;;;6.31;100.00;101525.38;5243741;28;20884;-88
2022/12/19 07:25:19;;;;;;;20.67;16.10;;;;;;;6.41;100.00;101518.53;5242109;28;20056;-87
2022/12/19 07:27:51;;;;;;;20.92;15.73;;;;;;;6.40;100.00;101511.53;5259758;28;20041;-87
2022/12/19 07:30:22;;;;;;;19.67;14.88;;;;;;;6.44;100.00;101518.34;5256775;28;20034;-86
2022/12/19 07:32:54;;;;;;;19.77;15.43;;;;;;;6.46;100.00;101542.94;5240014;28;20810;-85
2022/12/19 07:35:25;;;;;;;18.05;13.68;;;;;;;6.36;100.00;101521.47;5255355;28;20034;-86
2022/12/19 07:38:04;;;;;;;20.27;14.95;;;;;;;6.47;100.00;101514.63;5238914;28;20393;-86
2022/12/19 07:40:35;;;;;;;19.85;13.70;;;;;;;6.43;100.00;101528.09;5257793;28;20497;-85
2022/12/19 07:43:07;;;;;;;19.02;13.82;;;;;;;6.42;100.00;101521.09;5242928;28;20022;-86
2022/12/19 07:45:38;;;;;;;21.02;14.63;;;;;;;6.40;100.00;101519.50;5239683;28;20030;-85
2022/12/19 07:48:10;;;;;;;16.55;13.57;;;;;;;6.48;100.00;101521.66;5258033;28;20490;-84
2022/12/19 07:50:41;;;;;;;16.85;12.85;;;;;;;6.44;100.00;101518.34;5253412;28;20437;-85
2022/12/19 07:53:12;;;;;;;16.75;13.00;;;;;;;6.42;100.00;101529.03;5244064;28;20040;-85
2022/12/19 07:55:44;;;;;;;15.40;12.45;;;;;;;6.43;100.00;101536.06;5237735;28;20088;-85
2022/12/19 07:58:15;;;;;;;20.50;13.50;;;;;;;6.43;100.00;101538.69;5238637;28;20027;-85
2022/12/19 08:00:54;;;;;;;16.42;11.80;;;;;;;6.45;100.00;101530.63;5256671;28;20140;-85
2022/12/19 08:03:27;;;;;;;14.45;11.80;;;;;;;6.48;100.00;101540.19;5257374;28;20133;-85
2022/12/19 08:06:00;;;;;;;15.23;12.10;;;;;;;6.50;100.00;101547.09;5258694;28;20065;-85
2022/12/19 08:08:32;;;;;;;18.52;12.18;;;;;;;6.54;100.00;101534.47;5262396;28;20037;-86
2022/12/19 08:11:12;;;;;;;14.88;11.93;;;;;;;6.51;100.00;101548.78;5261408;28;20030;-86
2022/12/19 08:13:45;;;;;;;13.88;11.90;;;;;;;6.50;100.00;101549.72;5244057;28;20409;-85
2022/12/19 08:16:16;;;;;;;13.13;10.27;;;;;;;6.52;100.00;101558.47;5260874;28;20466;-86
2022/12/19 08:18:48;;;;;;;14.82;11.52;;;;;;;6.58;100.00;101554.56;5258121;28;20037;-85
2022/12/19 08:21:19;;;;;;;15.00;11.48;;;;;;;6.57;100.00;101543.13;5239671;28;20136;-85
2022/12/19 08:23:50;;;;;;;15.55;10.48;;;;;;;6.59;100.00;101543.00;5244090;28;20514;-86
2022/12/19 08:26:26;;;;;;;15.00;11.68;;;;;;;6.59;100.00;101533.25;5259454;28;20411;-86
2022/12/19 08:28:57;;;;;;;14.73;11.40;;;;;;;6.63;100.00;101553.31;5239144;28;20029;-84
2022/12/19 08:31:29;;;;;;;15.68;12.07;;;;;;;6.65;100.00;101529.34;5239555;28;20434;-84
2022/12/19 08:34:00;;;;;;;15.63;12.05;;;;;;;6.64;100.00;101554.16;5266004;28;20370;-83
2022/12/19 08:36:32;;;;;;;13.02;10.75;;;;;;;6.66;100.00;101536.34;5253762;28;20102;-84
2022/12/19 08:39:03;;;;;;;12.70;10.73;;;;;;;6.74;100.00;101549.09;5247166;28;20476;-85
2022/12/19 08:41:35;;;;;;;17.70;11.00;;;;;;;6.73;100.00;101553.56;5255032;28;20022;-85
2022/12/19 08:44:10;;;;;;;15.45;10.13;;;;;;;6.77;100.00;101572.78;5284567;28;20021;-85
2022/12/19 08:46:41;;;;;;;15.60;10.68;;;;;;;6.81;100.00;101566.31;5279746;28;20033;-85
2022/12/19 08:49:12;;;;;;;12.80;10.63;;;;;;;6.81;100.00;101540.63;5268764;28;20041;-84
2022/12/19 08:51:44;;;;;;;12.00;9.57;;;;;;;6.86;100.00;101561.56;5244385;28;20072;-84
2022/12/19 08:54:16;;;;;;;12.48;10.00;;;;;;;6.89;100.00;101561.38;5244301;28;20033;-84
2022/12/19 08:56:47;;;;;;;11.60;9.77;;;;;;;6.86;100.00;101556.25;5235717;28;20057;-84
2022/12/19 08:59:18;;;;;;;11.77;9.77;;;;;;;6.90;100.00;101548.94;5261273;28;20022;-85
2022/12/19 09:01:50;;;;;;;11.82;9.20;;;;;;;6.98;100.00;101557.25;5261196;28;20109;-84
2022/12/19 09:04:21;;;;;;;13.40;9.20;;;;;;;6.94;100.00;101546.00;5244750;28;20033;-84
2022/12/19 09:06:53;;;;;;;10.50;8.70;;;;;;;6.95;100.00;101552.16;5258924;28;20038;-84
2022/12/19 09:09:24;;;;;;;12.50;8.15;;;;;;;6.97;100.00;101555.53;5261642;28;20426;-84
2022/12/19 09:11:55;;;;;;;9.68;8.65;;;;;;;6.99;100.00;101562.47;5242115;28;20433;-85
2022/12/19 09:14:31;;;;;;;10.68;8.07;;;;;;;7.00;100.00;101576.56;5243818;28;20470;-85
2022/12/19 09:17:02;;;;;;;10.48;8.30;;;;;;;7.04;100.00;101572.75;5261530;28;20410;-85
2022/12/19 09:19:33;;;;;;;9.75;8.48;;;;;;;7.03;100.00;101573.72;5262311;28;20099;-85
2022/12/19 09:22:05;;;;;;;9.18;8.27;;;;;;;7.00;100.00;101566.81;5260960;28;20030;-86
2022/12/19 09:24:36;;;;;;;9.07;7.53;;;;;;;7.09;100.00;101573.31;5261938;28;20334;-85
2022/12/19 09:27:08;;;;;;;11.90;7.97;;;;;;;7.09;100.00;101564.50;5257605;28;20037;-85
2022/12/19 09:29:39;;;;;;;11.73;7.90;;;;;;;7.15;100.00;101574.69;5258822;28;20103;-85
2022/12/19 09:32:11;;;;;;;8.82;7.93;;;;;;;7.17;100.00;101570.13;5258186;28;20037;-85
2022/12/19 09:34:42;;;;;;;9.88;8.02;;;;;;;7.16;100.00;101571.09;5258989;28;20030;-85
2022/12/19 09:37:14;;;;;;;9.60;7.97;;;;;;;7.18;100.00;101572.69;5256436;28;20075;-85
2022/12/19 09:39:46;;;;;;;12.13;8.48;;;;;;;7.18;100.00;101553.25;5256880;28;20068;-85
2022/12/19 09:42:35;;;;;;;13.77;8.27;;;;;;;7.21;100.00;101565.50;5257214;28;20116;-86
2022/12/19 09:45:16;;;;;;;11.23;8.57;;;;;;;7.25;100.00;101573.13;5240604;28;20049;-86
2022/12/19 09:47:48;;;;;;;11.48;9.32;;;;;;;7.34;100.00;101571.66;5240565;28;20033;-85
2022/12/19 09:50:32;;;;;;;10.80;7.80;;;;;;;7.38;100.00;101575.78;5256671;28;20033;-85
2022/12/19 09:53:16;;;;;;;10.05;7.88;;;;;;;7.45;100.00;101565.63;5238924;28;20116;-85
2022/12/19 09:55:51;;;;;;;11.73;8.57;;;;;;;7.53;100.00;101579.22;5239979;28;20437;-85
2022/12/19 09:58:33;;;;;;;9.35;8.00;;;;;;;7.62;100.00;101575.94;5259619;28;20049;-85
2022/12/19 10:01:12;;;;;;;8.52;7.50;;;;;;;7.66;100.00;101579.22;5264450;28;20030;-85
2022/12/19 10:03:57;;;;;;;9.25;7.07;;;;;;;7.69;100.00;101587.00;5264171;28;20456;-85
2022/12/19 10:06:30;;;;;;;10.23;7.28;;;;;;;7.80;100.00;101583.59;5265546;28;20049;-85
2022/12/19 10:09:01;;;;;;;10.18;7.40;;;;;;;7.75;100.00;101578.63;5264672;28;20083;-85
2022/12/19 10:11:51;;;;;;;7.78;6.75;;;;;;;7.81;100.00;101572.03;5264381;28;20026;-85
2022/12/19 10:14:54;;;;;;;8.75;6.93;;;;;;;7.80;100.00;101573.84;5246350;28;20096;-85
2022/12/19 10:17:52;;;;;;;7.55;6.75;;;;;;;7.75;100.00;101568.84;5230579;28;20044;-85
2022/12/19 10:20:29;;;;;;;8.57;6.65;;;;;;;7.85;100.00;101584.97;5265581;28;20025;-85
2022/12/19 10:23:34;;;;;;;7.38;6.63;;;;;;;7.85;100.00;101568.19;5265833;28;20029;-85
2022/12/19 10:26:16;;;;;;;8.18;6.53;;;;;;;7.86;100.00;101576.03;5279919;28;20028;-85
2022/12/19 10:28:55;;;;;;;8.18;6.65;;;;;;;7.89;100.00;101581.16;5253754;28;20731;-85
2022/12/19 10:31:37;;;;;;;8.50;6.13;;;;;;;7.89;100.00;101582.97;5282242;28;20052;-85
2022/12/19 10:34:20;;;;;;;6.78;5.82;;;;;;;7.84;100.00;101577.97;5241288;28;20058;-85
2022/12/19 10:36:57;;;;;;;8.45;6.10;;;;;;;7.82;100.00;101589.63;5243280;28;20037;-85
2022/12/19 10:39:55;;;;;;;6.57;5.70;;;;;;;7.79;100.00;101592.53;5241959;28;20080;-85
2022/12/19 10:42:45;;;;;;;9.07;5.95;;;;;;;7.79;100.00;101595.19;5245957;28;20088;-85
2022/12/19 10:45:20;;;;;;;6.72;5.93;;;;;;;7.76;100.00;101585.59;5266797;28;20026;-85
2022/12/19 10:47:56;;;;;;;10.48;6.60;;;;;;;7.76;100.00;101588.25;5263860;28;20025;-85
2022/12/19 10:50:29;;;;;;;8.23;6.28;;;;;;;7.73;100.00;101605.28;5264178;28;20029;-84
2022/12/19 10:53:03;;;;;;;8.93;6.93;;;;;;;7.71;100.00;101593.03;5193826;28;20041;-85
2022/12/19 10:55:41;;;;;;;7.07;6.30;;;;;;;7.69;100.00;101579.03;5262342;28;20396;-86
2022/12/19 10:58:18;;;;;;;7.72;6.20;;;;;;;7.67;100.00;101578.28;5244674;28;20132;-85
2022/12/19 11:00:56;;;;;;;9.38;6.68;;;;;;;7.69;100.00;101582.53;5253454;28;20084;-85
2022/12/19 11:03:28;;;;;;;8.98;7.20;;;;;;;7.63;100.00;101582.94;5242970;28;20026;-85
2022/12/19 11:06:01;;;;;;;7.95;7.15;;;;;;;7.66;100.00;101577.44;5259450;28;20072;-85
2022/12/19 11:08:34;;;;;;;8.38;7.55;;;;;;;7.62;100.00;101562.66;5262527;28;20038;-85
2022/12/19 11:11:06;;;;;;;9.88;7.38;;;;;;;7.63;100.00;101579.47;5261422;28;20634;-85
2022/12/19 11:13:40;;;;;;;11.38;7.38;;;;;;;7.63;100.00;101569.69;5247541;28;20018;-86
2022/12/19 11:16:19;;;;;;;8.85;6.85;;;;;;;7.66;100.00;101566.81;5263295;28;20045;-85
2022/12/19 11:18:51;;;;;;;10.05;7.57;;;;;;;7.63;100.00;101558.22;5267428;28;20018;-84
2022/12/19 11:21:31;;;;;;;8.50;6.45;;;;;;;7.64;100.00;101544.81;5270835;28;20382;-84
2022/12/19 11:24:10;;;;;;;7.75;6.47;;;;;;;7.65;100.00;101551.84;5264985;28;20081;-84
2022/12/19 11:26:43;;;;;;;10.07;6.93;;;;;;;7.63;100.00;101551.09;5275636;28;20093;-85
2022/12/19 11:29:19;;;;;;;11.05;7.03;;;;;;;7.66;100.00;101547.34;5277756;28;20127;-85
2022/12/19 11:32:01;;;;;;;8.35;6.90;;;;;;;7.68;100.00;101553.41;5247393;28;20033;-85
2022/12/19 11:34:34;;;;;;;9.40;6.78;;;;;;;7.72;100.00;101533.66;5262883;28;20027;-86
2022/12/19 11:37:20;;;;;;;10.35;6.28;;;;;;;7.81;100.00;101533.03;5261929;28;20049;-86
2022/12/19 11:40:02;;;;;;;8.57;5.90;;;;;;;7.90;100.00;101523.56;5233550;28;20028;-85
2022/12/19 11:42:55;;;;;;;8.60;5.68;;;;;;;7.97;100.00;101529.28;5261712;28;20040;-85
2022/12/19 11:45:49;;;;;;;7.85;5.60;;;;;;;8.07;100.00;101533.84;5260996;28;20026;-84
2022/12/19 11:48:47;;;;;;;8.27;5.78;;;;;;;8.17;100.00;101525.19;5260489;28;20044;-84
2022/12/19 11:51:32;;;;;;;7.60;5.60;;;;;;;8.19;100.00;101532.13;5260139;28;20033;-85